Time;durP1;ratioP1;P1;durP2;ratioP2;P2;SDS_P1;SDS_P2;PMS_P1;PMS_P2;Temp;Humidity;BMP_temperature;BMP_pressure;BME280_temperature;BME280_humidity;BME280_pressure;Samples;Min_cycle;Max_cycle;Signal;HPM_P1;HPM_P2
2023/04/01 00:01:53;;;;;;;3.95;1.98;;;10.10;99.90;;;;;;6173306;22;20103;-80
2023/04/01 00:04:20;;;;;;;5.97;2.20;;;10.10;99.90;;;;;;6277149;22;20016;-80
2023/04/01 00:06:47;;;;;;;4.00;1.67;;;10.10;99.90;;;;;;6248819;22;20083;-80
2023/04/01 00:09:22;;;;;;;4.25;2.28;;;10.10;99.90;;;;;;6246729;22;20094;-83
2023/04/01 00:11:49;;;;;;;4.85;2.38;;;10.10;99.90;;;;;;6277518;22;20020;-80
2023/04/01 00:14:15;;;;;;;4.65;2.10;;;10.10;99.90;;;;;;6228351;22;20020;-81
2023/04/01 00:16:41;;;;;;;4.37;2.03;;;10.10;99.90;;;;;;6370200;22;20029;-80
2023/04/01 00:19:06;;;;;;;5.20;2.33;;;10.00;99.90;;;;;;6205263;22;20023;-82
2023/04/01 00:21:32;;;;;;;5.27;1.77;;;10.00;99.90;;;;;;6204383;22;20348;-84
2023/04/01 00:23:59;;;;;;;5.25;2.45;;;10.00;99.90;;;;;;6228231;22;20396;-80
2023/04/01 00:26:25;;;;;;;5.68;2.72;;;10.10;99.90;;;;;;6335447;22;20095;-84
2023/04/01 00:28:51;;;;;;;7.32;2.55;;;10.10;99.90;;;;;;6227889;22;20016;-80
2023/04/01 00:31:20;;;;;;;4.50;2.22;;;10.10;99.90;;;;;;6277547;22;20012;-81
2023/04/01 00:33:46;;;;;;;6.25;2.53;;;10.10;99.90;;;;;;6224557;22;20148;-86
2023/04/01 00:36:17;;;;;;;5.53;2.30;;;10.10;99.90;;;;;;6220753;22;20030;-83
2023/04/01 00:38:49;;;;;;;8.00;2.53;;;10.00;99.90;;;;;;6247359;22;20094;-84
2023/04/01 00:41:16;;;;;;;8.18;2.72;;;10.10;99.90;;;;;;6223105;22;20054;-81
2023/04/01 00:43:45;;;;;;;5.32;2.47;;;10.00;99.90;;;;;;6273258;22;20451;-82
2023/04/01 00:46:11;;;;;;;6.35;2.47;;;10.10;99.90;;;;;;6273892;22;20019;-82
2023/04/01 00:48:58;;;;;;;5.23;2.57;;;10.00;99.90;;;;;;6249795;22;20108;-84
2023/04/01 00:51:29;;;;;;;6.60;2.30;;;10.00;99.90;;;;;;6222734;22;20142;-83
2023/04/01 00:53:57;;;;;;;6.00;2.30;;;10.00;99.90;;;;;;6248599;22;20370;-92
2023/04/01 00:56:36;;;;;;;6.40;2.40;;;10.00;99.90;;;;;;6274922;22;20515;-85
2023/04/01 00:59:08;;;;;;;5.63;2.80;;;10.00;99.90;;;;;;6247476;22;20382;-91
2023/04/01 01:01:35;;;;;;;5.45;2.70;;;10.00;99.90;;;;;;6246098;22;20059;-85
2023/04/01 01:04:42;;;;;;;5.72;2.35;;;10.00;99.90;;;;;;6221247;22;20020;-82
2023/04/01 01:07:36;;;;;;;5.55;2.53;;;10.00;99.90;;;;;;6254615;22;20026;-83
2023/04/01 01:10:24;;;;;;;5.20;2.20;;;10.00;99.90;;;;;;6260402;22;20382;-94
2023/04/01 01:13:15;;;;;;;5.05;2.10;;;10.00;99.90;;;;;;6219839;22;20352;-84
2023/04/01 01:16:04;;;;;;;6.68;2.42;;;10.00;99.90;;;;;;6244993;22;20022;-82
2023/04/01 01:18:54;;;;;;;6.03;2.60;;;10.00;99.90;;;;;;6245185;22;20016;-87
2023/04/01 01:21:44;;;;;;;7.78;2.75;;;10.00;99.90;;;;;;6219736;22;20058;-82
2023/04/01 01:24:28;;;;;;;5.15;2.53;;;10.00;99.90;;;;;;6271960;22;20012;-82
2023/04/01 01:27:10;;;;;;;7.53;3.45;;;10.00;99.90;;;;;;6272442;22;20317;-81
2023/04/01 01:29:57;;;;;;;6.07;2.95;;;10.00;99.90;;;;;;6272217;22;20340;-82
2023/04/01 01:32:59;;;;;;;6.85;3.13;;;10.00;99.90;;;;;;6272113;22;20023;-82
2023/04/01 01:35:33;;;;;;;6.15;2.75;;;10.00;99.90;;;;;;6272101;22;20022;-83
2023/04/01 01:38:12;;;;;;;5.93;3.03;;;10.00;99.90;;;;;;6245915;22;20098;-85
2023/04/01 01:40:41;;;;;;;6.72;2.83;;;10.00;99.90;;;;;;6245650;22;20075;-82
2023/04/01 01:43:10;;;;;;;6.25;3.08;;;10.00;99.90;;;;;;6271568;22;20425;-83
2023/04/01 01:45:43;;;;;;;6.95;3.30;;;10.00;99.90;;;;;;6272391;22;20429;-83
2023/04/01 01:48:19;;;;;;;6.18;3.17;;;10.00;99.90;;;;;;6220891;22;20019;-82
2023/04/01 01:50:47;;;;;;;7.17;2.90;;;10.00;99.90;;;;;;6219297;22;20016;-82
2023/04/01 01:53:13;;;;;;;8.10;3.70;;;10.00;99.90;;;;;;6272853;22;20242;-81
2023/04/01 01:55:47;;;;;;;6.55;3.15;;;10.00;99.90;;;;;;6245629;22;20012;-82
2023/04/01 01:58:35;;;;;;;7.78;2.97;;;10.00;99.90;;;;;;6220629;22;20076;-82
2023/04/01 02:01:05;;;;;;;8.10;3.03;;;10.00;99.90;;;;;;6219437;22;20033;-82
2023/04/01 02:03:35;;;;;;;6.93;3.13;;;10.00;99.90;;;;;;6244895;22;20035;-82
2023/04/01 02:06:05;;;;;;;7.55;3.58;;;10.00;99.90;;;;;;6244163;22;20012;-90
2023/04/01 02:08:54;;;;;;;7.60;3.67;;;10.00;99.90;;;;;;6219158;22;20110;-83
2023/04/01 02:11:27;;;;;;;6.70;3.20;;;10.00;99.90;;;;;;6244058;22;20022;-82
2023/04/01 02:14:01;;;;;;;7.28;3.38;;;10.00;99.90;;;;;;6272180;22;20043;-81
2023/04/01 02:16:32;;;;;;;7.55;3.65;;;10.00;99.90;;;;;;6272367;22;20102;-82
2023/04/01 02:19:00;;;;;;;7.35;3.55;;;10.00;99.90;;;;;;6245392;22;20087;-92
2023/04/01 02:21:30;;;;;;;6.60;3.30;;;10.00;99.90;;;;;;6245429;22;20110;-82
2023/04/01 02:23:57;;;;;;;7.35;3.33;;;10.00;99.90;;;;;;6272548;22;20008;-88
2023/04/01 02:26:24;;;;;;;;;;;10.00;99.90;;;;;;6245480;22;20020;-82
2023/04/01 02:28:52;;;;;;;7.50;3.60;;;10.00;99.90;;;;;;6271763;22;19993;-83
2023/04/01 02:31:18;;;;;;;6.68;3.10;;;10.00;99.90;;;;;;6271841;22;20015;-89
2023/04/01 02:33:45;;;;;;;6.78;3.28;;;9.90;99.90;;;;;;6271839;22;20041;-83
2023/04/01 02:36:14;;;;;;;5.63;2.70;;;9.90;99.90;;;;;;6245612;22;20098;-89
2023/04/01 02:38:41;;;;;;;7.72;2.97;;;9.90;99.90;;;;;;6246353;22;20016;-82
2023/04/01 02:41:06;;;;;;;;;;;9.90;99.90;;;;;;6275409;22;20024;-83
2023/04/01 02:43:33;;;;;;;8.38;3.80;;;9.90;99.90;;;;;;6273888;22;19947;-83
2023/04/01 02:45:58;;;;;;;7.78;4.07;;;9.90;99.90;;;;;;6272175;22;20007;-83
2023/04/01 02:48:24;;;;;;;12.20;5.00;;;9.90;99.90;;;;;;6244625;22;20072;-83
2023/04/01 02:50:50;;;;;;;9.90;4.87;;;9.90;99.90;;;;;;6271622;22;20095;-82
2023/04/01 02:53:16;;;;;;;8.80;4.13;;;9.90;99.90;;;;;;6244726;22;20020;-88
2023/04/01 02:55:42;;;;;;;10.13;4.78;;;9.90;99.90;;;;;;6244831;22;20020;-92
2023/04/01 02:58:07;;;;;;;10.07;4.82;;;9.90;99.90;;;;;;6244893;22;20027;-83
2023/04/01 03:00:33;;;;;;;9.90;4.73;;;9.90;99.90;;;;;;6245015;22;20080;-82
2023/04/01 03:02:59;;;;;;;10.77;5.47;;;9.90;99.90;;;;;;6271935;22;20016;-81
2023/04/01 03:05:25;;;;;;;11.90;5.80;;;9.90;99.90;;;;;;6244564;22;20254;-87
2023/04/01 03:07:51;;;;;;;10.40;5.28;;;9.90;99.90;;;;;;6271750;22;20175;-88
2023/04/01 03:10:17;;;;;;;10.27;4.63;;;9.90;99.90;;;;;;6219880;22;20019;-84
2023/04/01 03:12:42;;;;;;;10.55;5.35;;;9.90;99.90;;;;;;6272569;22;20023;-87
2023/04/01 03:15:11;;;;;;;10.07;4.70;;;9.90;99.90;;;;;;6244784;22;20116;-82
2023/04/01 03:17:38;;;;;;;9.65;3.95;;;9.90;99.90;;;;;;6271444;22;20023;-82
2023/04/01 03:20:04;;;;;;;12.13;5.05;;;9.90;99.90;;;;;;6243996;22;20051;-86
2023/04/01 03:22:30;;;;;;;8.82;4.45;;;9.90;99.90;;;;;;6244726;22;20020;-83
2023/04/01 03:24:56;;;;;;;9.82;4.55;;;9.90;99.90;;;;;;6245731;22;20322;-83
2023/04/01 03:27:23;;;;;;;9.17;4.57;;;9.90;99.90;;;;;;6272343;22;20026;-82
2023/04/01 03:29:48;;;;;;;9.90;4.53;;;9.90;99.90;;;;;;6245564;22;20019;-83
2023/04/01 03:32:14;;;;;;;8.93;4.30;;;9.90;99.90;;;;;;6220853;22;20054;-83
2023/04/01 03:34:40;;;;;;;9.15;4.45;;;9.90;99.90;;;;;;6220681;22;20030;-84
2023/04/01 03:37:06;;;;;;;8.93;4.60;;;9.90;99.90;;;;;;6272798;22;20064;-85
2023/04/01 03:39:31;;;;;;;9.93;4.60;;;9.90;99.90;;;;;;6245642;22;20026;-82
2023/04/01 03:41:57;;;;;;;8.83;4.80;;;9.90;99.90;;;;;;6272390;22;20348;-86
2023/04/01 03:44:23;;;;;;;9.93;4.17;;;9.80;99.90;;;;;;6272697;22;20066;-84
2023/04/01 03:46:48;;;;;;;9.83;5.23;;;9.80;99.90;;;;;;6245267;22;20022;-81
2023/04/01 03:49:14;;;;;;;10.17;4.90;;;9.90;99.90;;;;;;6272215;22;20024;-82
2023/04/01 03:51:44;;;;;;;9.47;5.17;;;9.80;99.90;;;;;;6245516;22;20020;-83
2023/04/01 03:54:10;;;;;;;9.60;4.55;;;9.80;99.90;;;;;;6245106;22;20020;-81
2023/04/01 03:56:37;;;;;;;10.07;4.63;;;9.80;99.90;;;;;;6273211;22;20023;-82
2023/04/01 03:59:06;;;;;;;9.10;4.80;;;9.80;99.90;;;;;;6272671;22;20341;-81
2023/04/01 04:01:32;;;;;;;9.20;4.35;;;9.80;99.90;;;;;;6272411;22;20015;-80
2023/04/01 04:03:59;;;;;;;10.57;4.33;;;9.80;99.90;;;;;;6245145;22;20012;-84
2023/04/01 04:06:25;;;;;;;9.30;4.55;;;9.80;99.90;;;;;;6272547;22;20065;-81
2023/04/01 04:08:51;;;;;;;10.18;4.90;;;9.80;99.90;;;;;;6272310;22;20023;-82
2023/04/01 04:11:18;;;;;;;9.83;4.63;;;9.80;99.90;;;;;;6272622;22;20019;-84
2023/04/01 04:13:43;;;;;;;9.23;4.35;;;9.80;99.90;;;;;;6272757;22;20330;-88
2023/04/01 04:16:10;;;;;;;9.00;4.70;;;9.80;99.90;;;;;;6245082;22;20026;-82
2023/04/01 04:18:36;;;;;;;8.48;3.72;;;9.80;99.90;;;;;;6245506;22;20030;-82
2023/04/01 04:21:03;;;;;;;8.95;4.25;;;9.80;99.90;;;;;;6272347;22;20020;-82
2023/04/01 04:23:30;;;;;;;;;;;9.80;99.90;;;;;;6245840;22;20118;-85
2023/04/01 04:26:00;;;;;;;10.25;4.60;;;9.80;99.90;;;;;;6272854;22;19915;-84
2023/04/01 04:28:27;;;;;;;9.82;4.70;;;9.80;99.90;;;;;;6245254;22;20108;-83
2023/04/01 04:30:53;;;;;;;;;;;9.80;99.90;;;;;;6245943;22;20392;-81
2023/04/01 04:33:19;;;;;;;12.73;5.55;;;9.80;99.90;;;;;;6245657;22;19918;-85
2023/04/01 04:35:45;;;;;;;12.73;6.07;;;9.80;99.90;;;;;;6272472;22;20015;-82
2023/04/01 04:38:11;;;;;;;11.63;5.18;;;9.80;99.90;;;;;;6246175;22;20026;-82
2023/04/01 04:40:37;;;;;;;11.13;5.77;;;9.80;99.90;;;;;;6273043;22;20090;-90
2023/04/01 04:43:03;;;;;;;9.50;4.68;;;9.80;99.90;;;;;;6273167;22;20022;-88
2023/04/01 04:45:29;;;;;;;12.13;5.65;;;9.90;99.90;;;;;;6246060;22;20008;-86
2023/04/01 04:47:55;;;;;;;10.75;5.97;;;9.80;99.90;;;;;;6272949;22;20012;-94
2023/04/01 04:50:21;;;;;;;10.73;5.67;;;9.90;99.90;;;;;;6220468;22;20016;-82
2023/04/01 04:52:47;;;;;;;12.67;5.60;;;9.90;99.90;;;;;;6246136;22;20027;-81
2023/04/01 04:55:12;;;;;;;13.13;6.13;;;9.80;99.90;;;;;;6245907;22;20247;-86
2023/04/01 04:57:38;;;;;;;14.87;6.60;;;9.90;99.90;;;;;;6246174;22;20071;-82
2023/04/01 05:00:05;;;;;;;12.27;5.90;;;9.90;99.90;;;;;;6245781;22;20094;-91
2023/04/01 05:02:30;;;;;;;13.68;6.63;;;9.90;99.90;;;;;;6272571;22;20090;-81
2023/04/01 05:04:56;;;;;;;12.20;6.00;;;9.90;99.90;;;;;;6246112;22;20330;-86
2023/04/01 05:07:21;;;;;;;13.77;6.77;;;9.90;99.90;;;;;;6272896;22;20023;-84
2023/04/01 05:09:47;;;;;;;13.27;6.90;;;9.90;99.90;;;;;;6272932;22;20076;-89
2023/04/01 05:12:13;;;;;;;14.47;6.13;;;9.90;99.90;;;;;;6220910;22;20016;-83
2023/04/01 05:14:39;;;;;;;12.10;5.70;;;9.90;99.90;;;;;;6220574;22;20248;-82
2023/04/01 05:17:11;;;;;;;14.38;6.93;;;9.90;99.90;;;;;;6273265;22;20026;-87
2023/04/01 05:19:37;;;;;;;11.13;5.90;;;9.90;99.90;;;;;;6272769;22;20015;-82
2023/04/01 05:22:03;;;;;;;13.93;6.70;;;9.90;99.90;;;;;;6272511;22;20019;-96
2023/04/01 05:24:30;;;;;;;12.83;6.97;;;9.90;99.90;;;;;;6272468;22;20095;-80
2023/04/01 05:26:57;;;;;;;15.52;7.10;;;9.90;99.90;;;;;;6245802;22;20417;-81
2023/04/01 05:29:23;;;;;;;14.00;6.32;;;9.90;99.90;;;;;;6245753;22;20469;-82
2023/04/01 05:31:49;;;;;;;11.57;5.30;;;9.90;99.90;;;;;;6272664;22;20016;-82
2023/04/01 05:34:14;;;;;;;14.17;5.93;;;9.90;99.90;;;;;;6272662;22;20024;-85
2023/04/01 05:36:41;;;;;;;12.37;6.07;;;9.90;99.90;;;;;;6246016;22;20012;-81
2023/04/01 05:39:07;;;;;;;13.20;6.43;;;9.90;99.90;;;;;;6246189;22;20024;-83
2023/04/01 05:41:36;;;;;;;11.05;5.75;;;9.90;99.90;;;;;;6247743;22;20018;-84
2023/04/01 05:44:02;;;;;;;13.05;6.13;;;9.90;99.90;;;;;;6274867;22;20068;-82
2023/04/01 05:46:28;;;;;;;11.53;5.50;;;9.90;99.90;;;;;;6277373;22;20016;-81
2023/04/01 05:48:53;;;;;;;12.52;6.00;;;9.90;99.90;;;;;;6249675;22;20074;-83
2023/04/01 05:51:19;;;;;;;11.50;5.73;;;9.90;99.90;;;;;;6248608;22;20019;-85
2023/04/01 05:53:45;;;;;;;11.73;5.60;;;9.90;99.90;;;;;;6274806;22;20019;-82
2023/04/01 05:56:11;;;;;;;10.83;5.23;;;9.90;99.90;;;;;;6273253;22;20054;-84
2023/04/01 05:58:37;;;;;;;13.63;5.72;;;9.90;99.90;;;;;;6245996;22;20445;-81
2023/04/01 06:01:05;;;;;;;12.95;6.10;;;9.90;99.90;;;;;;6272549;22;20020;-89
2023/04/01 06:03:30;;;;;;;11.32;5.90;;;9.90;99.90;;;;;;6272906;22;20011;-82
2023/04/01 06:05:56;;;;;;;11.70;6.37;;;9.90;99.90;;;;;;6245774;22;20015;-81
2023/04/01 06:08:22;;;;;;;11.23;5.73;;;9.90;99.90;;;;;;6220481;22;20024;-81
2023/04/01 06:11:30;;;;;;;13.73;6.33;;;10.00;99.90;;;;;;6272809;22;20091;-81
2023/04/01 06:14:02;;;;;;;11.48;5.55;;;10.00;99.90;;;;;;6253609;22;20509;-82
2023/04/01 06:17:00;;;;;;;11.75;5.63;;;10.00;99.90;;;;;;6244935;22;20382;-82
2023/04/01 06:19:47;;;;;;;14.05;6.68;;;10.00;99.90;;;;;;6245927;22;20073;-96
2023/04/01 06:22:31;;;;;;;13.65;6.28;;;10.00;99.90;;;;;;6272140;22;20023;-83
2023/04/01 06:32:18;;;;;;;15.07;5.97;;;10.10;99.90;;;;;;6244964;22;20022;-94
2023/04/01 06:34:56;;;;;;;15.48;6.65;;;10.10;99.90;;;;;;6245067;22;20102;-82
2023/04/01 06:37:40;;;;;;;15.88;6.78;;;10.10;99.90;;;;;;6245149;22;20012;-81
2023/04/01 06:40:46;;;;;;;13.07;6.13;;;10.10;99.90;;;;;;6244968;22;20054;-85
2023/04/01 06:43:44;;;;;;;14.05;6.75;;;10.10;99.90;;;;;;6244788;22;20019;-86
2023/04/01 06:46:15;;;;;;;13.48;5.82;;;10.10;99.90;;;;;;6244765;22;20038;-82
2023/04/01 06:48:57;;;;;;;12.75;6.80;;;10.10;99.90;;;;;;6244734;22;20020;-87
2023/04/01 06:51:30;;;;;;;13.30;6.30;;;10.10;99.90;;;;;;6272245;22;20018;-83
2023/04/01 06:54:10;;;;;;;16.45;7.90;;;10.10;99.90;;;;;;6272027;22;20035;-86
2023/04/01 06:56:40;;;;;;;13.27;6.57;;;10.20;99.90;;;;;;6244271;22;20011;-86
2023/04/01 06:59:15;;;;;;;14.20;6.80;;;10.20;99.90;;;;;;6272185;22;20015;-84
2023/04/01 07:01:55;;;;;;;14.85;7.13;;;10.20;99.90;;;;;;6272213;22;20082;-88
2023/04/01 07:04:23;;;;;;;14.65;7.10;;;10.20;99.90;;;;;;6245368;22;20024;-83
2023/04/01 07:06:57;;;;;;;17.15;7.28;;;10.30;99.90;;;;;;6272376;22;20032;-84
2023/04/01 07:09:28;;;;;;;18.05;7.03;;;10.30;99.90;;;;;;6271525;22;20435;-92
2023/04/01 07:11:59;;;;;;;15.35;7.20;;;10.30;99.90;;;;;;6244514;22;20093;-83
2023/04/01 07:14:36;;;;;;;15.38;7.68;;;10.30;99.90;;;;;;6244562;22;20011;-82
2023/04/01 07:17:27;;;;;;;15.57;7.47;;;10.30;99.90;;;;;;6270927;22;20351;-82
2023/04/01 07:20:26;;;;;;;14.60;7.25;;;10.40;99.90;;;;;;6271138;22;20016;-83
2023/04/01 07:22:57;;;;;;;15.95;7.82;;;10.40;99.90;;;;;;6277319;22;20016;-83
2023/04/01 07:25:35;;;;;;;15.18;8.00;;;10.40;99.90;;;;;;6271351;22;20020;-82
2023/04/01 07:28:05;;;;;;;15.02;7.80;;;10.40;99.90;;;;;;6244659;22;20083;-82
2023/04/01 07:31:15;;;;;;;14.65;7.45;;;10.40;99.90;;;;;;6244575;22;20023;-82
2023/04/01 07:33:49;;;;;;;15.35;7.30;;;10.40;99.90;;;;;;6304212;22;20053;-82
2023/04/01 07:36:31;;;;;;;15.73;7.15;;;10.40;99.90;;;;;;6228573;22;20044;-82
2023/04/01 07:39:32;;;;;;;13.82;7.18;;;10.50;99.90;;;;;;6244491;22;20094;-84
2023/04/01 07:42:41;;;;;;;14.98;7.22;;;10.50;99.90;;;;;;6272318;22;20453;-86
2023/04/01 07:45:26;;;;;;;14.55;6.57;;;10.60;99.90;;;;;;6219183;22;20444;-82
2023/04/01 07:48:15;;;;;;;15.30;6.93;;;10.70;99.90;;;;;;6244176;22;20459;-82
2023/04/01 07:50:53;;;;;;;13.27;6.53;;;10.70;99.90;;;;;;6219204;22;20019;-81
2023/04/01 07:53:25;;;;;;;13.50;6.97;;;10.70;99.90;;;;;;6244290;22;20023;-83
2023/04/01 07:56:14;;;;;;;14.68;6.85;;;10.80;99.90;;;;;;6218807;22;20060;-83
2023/04/01 07:59:05;;;;;;;13.70;6.55;;;10.80;99.90;;;;;;6271278;22;20020;-82
2023/04/01 08:01:54;;;;;;;13.98;6.20;;;10.90;99.90;;;;;;6271346;22;20008;-83
2023/04/01 08:04:35;;;;;;;11.65;5.75;;;10.90;99.90;;;;;;6271332;22;20011;-83
2023/04/01 08:07:13;;;;;;;12.85;5.57;;;11.00;99.90;;;;;;6244446;22;20448;-84
2023/04/01 08:09:58;;;;;;;13.50;6.50;;;11.00;99.90;;;;;;6245461;22;20023;-83
2023/04/01 08:12:32;;;;;;;12.32;5.75;;;11.10;99.90;;;;;;6220323;22;20023;-85
2023/04/01 08:15:21;;;;;;;14.70;6.32;;;11.10;99.90;;;;;;6245805;22;20068;-86
2023/04/01 08:18:02;;;;;;;14.32;6.60;;;11.10;99.90;;;;;;6245823;22;20068;-83
2023/04/01 08:20:33;;;;;;;15.10;7.10;;;11.10;99.90;;;;;;6272710;22;20390;-85
2023/04/01 08:23:19;;;;;;;14.48;6.88;;;11.20;99.90;;;;;;6245649;22;20019;-84
2023/04/01 08:26:14;;;;;;;12.15;6.40;;;11.10;99.90;;;;;;6272832;22;20090;-86
2023/04/01 08:29:17;;;;;;;12.57;5.38;;;11.20;99.90;;;;;;6245696;22;20020;-83
2023/04/01 08:31:57;;;;;;;11.82;5.38;;;11.10;99.90;;;;;;6245441;22;20016;-85
2023/04/01 08:34:30;;;;;;;12.90;5.85;;;11.10;99.90;;;;;;6272512;22;20026;-83
2023/04/01 08:37:05;;;;;;;11.55;5.78;;;11.10;99.90;;;;;;6245720;22;20098;-83
2023/04/01 08:39:37;;;;;;;6.95;3.15;;;11.10;99.90;;;;;;6245682;22;20084;-83
2023/04/01 08:42:21;;;;;;;5.97;2.92;;;11.10;99.90;;;;;;6245750;22;20027;-88
2023/04/01 08:45:03;;;;;;;5.07;2.30;;;11.10;99.90;;;;;;6245364;22;20183;-84
2023/04/01 08:48:08;;;;;;;5.22;2.00;;;10.90;99.90;;;;;;6245101;22;20453;-84
2023/04/01 08:50:43;;;;;;;4.47;1.80;;;10.70;99.90;;;;;;6221044;22;20016;-83
2023/04/01 08:53:11;;;;;;;4.13;1.75;;;10.60;99.90;;;;;;6247439;22;20020;-82
2023/04/01 08:55:46;;;;;;;5.83;2.43;;;10.60;99.90;;;;;;6247454;22;20046;-85
2023/04/01 08:58:33;;;;;;;5.57;2.13;;;10.60;99.90;;;;;;6245774;22;20344;-83
2023/04/01 09:01:14;;;;;;;4.45;1.70;;;10.50;99.90;;;;;;6272070;22;20022;-86
2023/04/01 09:05:02;;;;;;;4.03;1.42;;;10.50;99.90;;;;;;6245249;22;20019;-82
2023/04/01 09:08:15;;;;;;;3.17;1.17;;;10.40;99.90;;;;;;6223373;22;20015;-84
2023/04/01 09:10:55;;;;;;;3.45;1.40;;;10.40;99.90;;;;;;6209473;23;20047;-86
2023/04/01 09:13:50;;;;;;;2.92;1.30;;;10.30;99.90;;;;;;6208585;23;20461;-84
2023/04/01 09:16:57;;;;;;;3.65;1.30;;;10.20;99.90;;;;;;6221894;22;20489;-83
2023/04/01 09:20:01;;;;;;;3.03;1.20;;;10.20;99.90;;;;;;6158587;23;20012;-83
2023/04/01 09:22:54;;;;;;;2.63;1.10;;;10.20;99.90;;;;;;6274023;22;20019;-83
2023/04/01 09:25:50;;;;;;;1.75;0.60;;;10.30;99.90;;;;;;6223303;22;20019;-82
2023/04/01 09:28:20;;;;;;;2.30;0.90;;;10.30;99.90;;;;;;6192255;23;20028;-83
2023/04/01 09:31:01;;;;;;;2.85;1.00;;;10.30;99.90;;;;;;6183148;23;20021;-87
2023/04/01 09:34:07;;;;;;;4.43;1.33;;;10.30;99.90;;;;;;6184350;23;20024;-87
2023/04/01 09:36:52;;;;;;;2.75;1.27;;;10.40;99.90;;;;;;6158797;22;20111;-86
2023/04/01 09:39:25;;;;;;;3.45;1.42;;;10.40;99.90;;;;;;6244974;22;20027;-85
2023/04/01 09:42:00;;;;;;;3.88;1.10;;;10.40;99.90;;;;;;6244603;22;20457;-84
2023/04/01 09:44:43;;;;;;;2.92;0.90;;;10.40;99.90;;;;;;6219172;22;20119;-87
2023/04/01 09:47:21;;;;;;;2.92;1.10;;;10.30;99.90;;;;;;6218502;22;20054;-83
2023/04/01 09:50:05;;;;;;;3.58;1.13;;;10.30;99.90;;;;;;6219156;22;20289;-85
2023/04/01 09:52:36;;;;;;;2.10;0.98;;;10.20;99.90;;;;;;6244471;22;20019;-86
2023/04/01 09:55:52;;;;;;;2.28;0.98;;;10.10;99.90;;;;;;6244604;22;20019;-83
2023/04/01 09:58:39;;;;;;;1.98;0.82;;;10.00;99.90;;;;;;6246142;22;20019;-84
2023/04/01 10:01:31;;;;;;;2.03;1.00;;;9.90;99.90;;;;;;6219234;22;20030;-85
2023/04/01 10:04:23;;;;;;;2.38;1.00;;;9.80;99.90;;;;;;6254640;22;20390;-85
2023/04/01 10:07:07;;;;;;;2.10;1.00;;;9.80;99.90;;;;;;6244645;22;20072;-86
2023/04/01 10:14:04;;;;;;;3.97;1.38;;;9.70;99.90;;;;;;6271895;22;20100;-83
2023/04/01 10:16:50;;;;;;;2.78;1.08;;;9.70;99.90;;;;;;6245002;22;20027;-85
2023/04/01 10:19:54;;;;;;;3.17;0.90;;;9.70;99.90;;;;;;6218957;22;20020;-87
2023/04/01 10:22:49;;;;;;;2.95;0.85;;;9.70;99.90;;;;;;6217887;22;20023;-87
2023/04/01 10:25:57;;;;;;;2.03;0.70;;;9.70;99.90;;;;;;6219294;22;20027;-88
2023/04/01 10:28:44;;;;;;;1.50;0.70;;;9.70;99.90;;;;;;6222902;22;20023;-85
2023/04/01 10:31:48;;;;;;;3.10;1.00;;;9.70;99.90;;;;;;6244483;22;20016;-85
2023/04/01 10:34:34;;;;;;;1.77;0.70;;;9.70;99.90;;;;;;6244739;22;20461;-89
2023/04/01 10:37:32;;;;;;;1.65;0.80;;;9.70;99.90;;;;;;6217935;22;20350;-87
2023/04/01 10:40:26;;;;;;;2.05;0.90;;;9.70;99.90;;;;;;6243776;22;20469;-85
2023/04/01 10:43:13;;;;;;;2.00;0.85;;;9.70;99.90;;;;;;6243502;22;20020;-86
2023/04/01 10:45:45;;;;;;;2.95;1.15;;;9.60;99.90;;;;;;6271654;22;20039;-85
2023/04/01 10:48:22;;;;;;;1.92;0.80;;;9.60;99.90;;;;;;6243361;22;20016;-86
2023/04/01 10:51:01;;;;;;;3.50;1.23;;;9.60;99.90;;;;;;6243785;22;20098;-85
2023/04/01 10:54:00;;;;;;;3.13;1.10;;;9.60;99.90;;;;;;6244289;22;20016;-84
2023/04/01 10:56:39;;;;;;;2.72;1.10;;;9.60;99.90;;;;;;6216576;22;20094;-85
2023/04/01 10:59:23;;;;;;;2.72;1.30;;;9.60;99.90;;;;;;6271267;22;20368;-89
2023/04/01 11:02:26;;;;;;;2.95;1.00;;;9.60;99.90;;;;;;6367173;22;20373;-84
2023/04/01 11:05:30;;;;;;;4.45;1.00;;;9.50;99.90;;;;;;6267135;22;20017;-85
2023/04/01 11:08:29;;;;;;;4.40;1.40;;;9.50;99.90;;;;;;6217858;22;20015;-82
2023/04/01 11:11:11;;;;;;;2.13;0.98;;;9.50;99.90;;;;;;6218337;22;20112;-86
2023/04/01 11:13:55;;;;;;;2.33;0.98;;;9.50;99.90;;;;;;6244690;22;20016;-83
2023/04/01 11:17:00;;;;;;;2.53;1.00;;;9.60;99.90;;;;;;6243413;22;20226;-83
2023/04/01 11:20:02;;;;;;;4.22;1.10;;;9.60;99.90;;;;;;6272552;22;20094;-90
2023/04/01 11:23:00;;;;;;;2.40;0.98;;;9.60;99.90;;;;;;6244906;22;20020;-83
2023/04/01 11:25:54;;;;;;;3.47;0.93;;;9.60;99.90;;;;;;6244830;22;20039;-84
2023/04/01 11:28:48;;;;;;;3.83;0.93;;;9.60;99.90;;;;;;6219415;22;20020;-86
2023/04/01 11:31:51;;;;;;;4.38;1.73;;;9.70;99.90;;;;;;6245785;22;20015;-85
2023/04/01 11:34:45;;;;;;;2.33;0.80;;;9.60;99.90;;;;;;6244549;22;20329;-83
2023/04/01 11:37:35;;;;;;;2.88;0.95;;;9.70;99.90;;;;;;6219479;22;20020;-83
2023/04/01 11:40:27;;;;;;;1.95;0.70;;;9.70;99.90;;;;;;6245378;22;20023;-85
2023/04/01 11:43:19;;;;;;;1.60;0.63;;;9.60;99.90;;;;;;6244991;22;20341;-85
2023/04/01 11:45:47;;;;;;;2.15;0.82;;;9.70;99.90;;;;;;6245840;22;20457;-83
2023/04/01 11:48:13;;;;;;;1.80;0.73;;;9.70;99.90;;;;;;6245727;22;20015;-85
2023/04/01 11:51:22;;;;;;;1.63;0.67;;;9.70;99.90;;;;;;6273035;22;20023;-87
2023/04/01 11:54:31;;;;;;;1.48;0.75;;;9.60;99.90;;;;;;6246191;22;20016;-85
2023/04/01 11:57:18;;;;;;;1.75;0.80;;;9.70;99.90;;;;;;6245792;22;20026;-86
2023/04/01 12:00:20;;;;;;;2.05;0.80;;;9.70;99.90;;;;;;6245684;22;20064;-86
2023/04/01 12:03:08;;;;;;;1.20;0.60;;;9.80;99.90;;;;;;6245546;22;20448;-86
2023/04/01 12:06:02;;;;;;;1.73;0.88;;;9.80;99.90;;;;;;6220615;22;20029;-85
2023/04/01 12:08:53;;;;;;;2.15;0.80;;;9.90;99.90;;;;;;6220463;22;20016;-87
2023/04/01 12:11:58;;;;;;;1.88;0.75;;;9.90;99.90;;;;;;6244917;22;20015;-86
2023/04/01 12:14:39;;;;;;;1.83;0.63;;;9.80;99.90;;;;;;6238919;22;20016;-86
2023/04/01 12:17:32;;;;;;;1.85;0.85;;;9.80;99.90;;;;;;6220504;22;20019;-86
2023/04/01 12:24:19;;;;;;;1.55;0.75;;;9.90;99.90;;;;;;6272902;22;20091;-84
2023/04/01 12:27:15;;;;;;;1.98;0.60;;;9.90;99.90;;;;;;6220400;22;20016;-86
2023/04/01 12:30:00;;;;;;;2.33;0.95;;;9.80;99.90;;;;;;6252920;22;20025;-86
2023/04/01 12:32:44;;;;;;;1.35;0.60;;;9.80;99.90;;;;;;6272767;22;20016;-84
2023/04/01 12:35:29;;;;;;;2.22;0.70;;;9.70;99.90;;;;;;6245719;22;20026;-86
2023/04/01 12:38:13;;;;;;;1.88;0.80;;;9.70;99.90;;;;;;6220667;22;20016;-86
2023/04/01 12:41:12;;;;;;;2.22;0.80;;;9.60;99.90;;;;;;6273747;22;20024;-87
2023/04/01 12:43:58;;;;;;;1.30;0.70;;;9.70;99.90;;;;;;6245568;22;20027;-85
2023/04/01 12:47:00;;;;;;;3.95;1.02;;;9.70;99.90;;;;;;6272905;22;20051;-85
2023/04/01 12:50:16;;;;;;;3.00;0.80;;;9.70;99.90;;;;;;6272511;22;20058;-83
2023/04/01 12:53:28;;;;;;;1.50;0.80;;;9.80;99.90;;;;;;6246036;22;20015;-89
2023/04/01 12:55:55;;;;;;;2.35;0.80;;;9.80;99.90;;;;;;6219838;22;20020;-82
2023/04/01 12:58:48;;;;;;;1.13;0.60;;;9.80;99.90;;;;;;6245426;22;20020;-81
2023/04/01 13:01:57;;;;;;;2.17;0.90;;;9.70;99.90;;;;;;6245485;22;20111;-85
2023/04/01 13:04:50;;;;;;;2.03;0.90;;;9.70;99.90;;;;;;6272658;22;20455;-83
2023/04/01 13:07:55;;;;;;;1.55;0.75;;;9.60;99.90;;;;;;6219997;22;20016;-82
2023/04/01 13:13:04;;;;;;;1.63;0.90;;;9.60;99.90;;;;;;6272150;22;20042;-90
2023/04/01 13:15:41;;;;;;;1.17;0.70;;;9.60;99.90;;;;;;6221083;22;20020;-86
2023/04/01 13:18:28;;;;;;;1.85;0.70;;;9.70;99.90;;;;;;6245524;22;20023;-86
2023/04/01 13:21:42;;;;;;;1.42;0.60;;;9.70;99.90;;;;;;6245735;22;20237;-89
2023/04/01 13:24:30;;;;;;;1.08;0.60;;;9.70;99.90;;;;;;6249218;22;20015;-84
2023/04/01 13:27:17;;;;;;;1.50;0.75;;;9.70;99.90;;;;;;6246345;22;20448;-86
2023/04/01 13:30:16;;;;;;;2.20;0.80;;;9.60;99.90;;;;;;6271474;22;20295;-83
2023/04/01 13:33:12;;;;;;;1.80;0.68;;;9.60;99.90;;;;;;6272331;22;20390;-85
2023/04/01 13:35:57;;;;;;;1.92;0.82;;;9.60;99.90;;;;;;6272622;22;20349;-84
2023/04/01 13:39:06;;;;;;;1.10;0.60;;;9.50;99.90;;;;;;6268365;22;20027;-85
2023/04/01 13:41:56;;;;;;;3.55;0.77;;;9.50;99.90;;;;;;6245774;22;20019;-85
2023/04/01 13:44:40;;;;;;;1.17;0.50;;;9.50;99.90;;;;;;6246617;22;20019;-86
2023/04/01 13:47:23;;;;;;;1.88;0.77;;;9.50;99.90;;;;;;6221299;22;20472;-87
2023/04/01 13:50:17;;;;;;;1.10;0.50;;;9.50;99.90;;;;;;6249483;22;20326;-85
2023/04/01 13:53:01;;;;;;;1.85;0.50;;;9.40;99.90;;;;;;6246092;22;20020;-82
2023/04/01 13:55:36;;;;;;;1.55;0.60;;;9.40;99.90;;;;;;6246848;22;20075;-88
2023/04/01 13:58:11;;;;;;;3.17;0.60;;;9.40;99.90;;;;;;6272738;22;20460;-83
2023/04/01 14:00:45;;;;;;;1.08;0.52;;;9.40;99.90;;;;;;6246030;22;20369;-91
2023/04/01 14:04:02;;;;;;;1.50;0.50;;;9.30;99.90;;;;;;6270435;22;20100;-83
2023/04/01 14:06:38;;;;;;;1.92;0.70;;;9.30;99.90;;;;;;6256806;22;20020;-84
2023/04/01 14:09:41;;;;;;;1.48;0.50;;;9.20;99.90;;;;;;6242810;22;20020;-82
2023/04/01 14:12:27;;;;;;;1.42;0.60;;;9.20;99.90;;;;;;6272630;22;20016;-86